sensor_id;sensor_type;location;lat;lon;timestamp;P1;durP1;ratioP1;P2;durP2;ratioP2
49842;SDS011;55559;48.898;9.184;2022-11-12T00:01:49;29.25;;;12.93;;
49842;SDS011;55559;48.898;9.184;2022-11-12T00:04:35;25.17;;;14.90;;
49842;SDS011;55559;48.898;9.184;2022-11-12T00:07:21;21.52;;;13.45;;
49842;SDS011;55559;48.898;9.184;2022-11-12T00:10:09;19.67;;;13.02;;
49842;SDS011;55559;48.898;9.184;2022-11-12T00:12:55;24.70;;;12.93;;
49842;SDS011;55559;48.898;9.184;2022-11-12T00:15:41;22.67;;;13.68;;
49842;SDS011;55559;48.898;9.184;2022-11-12T00:18:26;18.42;;;12.95;;
49842;SDS011;55559;48.898;9.184;2022-11-12T00:21:12;21.67;;;12.43;;
49842;SDS011;55559;48.898;9.184;2022-11-12T00:23:58;19.83;;;13.18;;
49842;SDS011;55559;48.898;9.184;2022-11-12T00:26:46;22.38;;;13.63;;
49842;SDS011;55559;48.898;9.184;2022-11-12T00:29:32;28.65;;;14.75;;
49842;SDS011;55559;48.898;9.184;2022-11-12T00:32:18;23.08;;;14.55;;
49842;SDS011;55559;48.898;9.184;2022-11-12T00:35:04;25.38;;;13.07;;
49842;SDS011;55559;48.898;9.184;2022-11-12T00:37:54;24.55;;;12.30;;
49842;SDS011;55559;48.898;9.184;2022-11-12T00:40:41;17.05;;;11.45;;
49842;SDS011;55559;48.898;9.184;2022-11-12T00:43:28;19.10;;;11.95;;
49842;SDS011;55559;48.898;9.184;2022-11-12T00:46:14;22.13;;;13.05;;
49842;SDS011;55559;48.898;9.184;2022-11-12T00:49:00;17.85;;;11.27;;
49842;SDS011;55559;48.898;9.184;2022-11-12T00:51:46;21.48;;;12.45;;
49842;SDS011;55559;48.898;9.184;2022-11-12T00:54:32;24.27;;;13.68;;
49842;SDS011;55559;48.898;9.184;2022-11-12T00:57:18;18.85;;;12.40;;
49842;SDS011;55559;48.898;9.184;2022-11-12T01:00:06;18.88;;;11.82;;
49842;SDS011;55559;48.898;9.184;2022-11-12T01:02:53;20.33;;;12.40;;
49842;SDS011;55559;48.898;9.184;2022-11-12T01:05:39;19.52;;;12.95;;
49842;SDS011;55559;48.898;9.184;2022-11-12T01:08:26;21.33;;;12.70;;
49842;SDS011;55559;48.898;9.184;2022-11-12T01:11:14;19.70;;;11.88;;
49842;SDS011;55559;48.898;9.184;2022-11-12T01:14:02;28.50;;;13.10;;
49842;SDS011;55559;48.898;9.184;2022-11-12T01:16:51;20.98;;;12.20;;
49842;SDS011;55559;48.898;9.184;2022-11-12T01:19:37;19.90;;;12.32;;
49842;SDS011;55559;48.898;9.184;2022-11-12T01:22:22;21.88;;;11.75;;
49842;SDS011;55559;48.898;9.184;2022-11-12T01:25:08;22.88;;;11.73;;
49842;SDS011;55559;48.898;9.184;2022-11-12T01:27:54;21.08;;;11.80;;
49842;SDS011;55559;48.898;9.184;2022-11-12T01:30:41;21.35;;;12.70;;
49842;SDS011;55559;48.898;9.184;2022-11-12T01:33:28;22.48;;;11.85;;
49842;SDS011;55559;48.898;9.184;2022-11-12T01:36:14;21.83;;;11.77;;
49842;SDS011;55559;48.898;9.184;2022-11-12T01:39:02;23.33;;;11.95;;
49842;SDS011;55559;48.898;9.184;2022-11-12T01:41:49;17.23;;;10.98;;
49842;SDS011;55559;48.898;9.184;2022-11-12T01:44:36;15.23;;;10.57;;
49842;SDS011;55559;48.898;9.184;2022-11-12T01:47:24;19.92;;;11.30;;
49842;SDS011;55559;48.898;9.184;2022-11-12T01:50:16;19.10;;;11.52;;
49842;SDS011;55559;48.898;9.184;2022-11-12T01:53:08;27.10;;;12.80;;
49842;SDS011;55559;48.898;9.184;2022-11-12T01:55:56;17.92;;;11.95;;
49842;SDS011;55559;48.898;9.184;2022-11-12T01:58:44;21.00;;;12.57;;
49842;SDS011;55559;48.898;9.184;2022-11-12T02:01:33;19.08;;;12.23;;
49842;SDS011;55559;48.898;9.184;2022-11-12T02:04:20;22.67;;;13.45;;
49842;SDS011;55559;48.898;9.184;2022-11-12T02:07:09;24.15;;;12.15;;
49842;SDS011;55559;48.898;9.184;2022-11-12T02:09:56;19.20;;;11.63;;
49842;SDS011;55559;48.898;9.184;2022-11-12T02:12:44;21.58;;;14.32;;
49842;SDS011;55559;48.898;9.184;2022-11-12T02:15:44;22.88;;;12.57;;
49842;SDS011;55559;48.898;9.184;2022-11-12T02:18:30;19.73;;;12.90;;
49842;SDS011;55559;48.898;9.184;2022-11-12T02:21:19;19.75;;;12.25;;
49842;SDS011;55559;48.898;9.184;2022-11-12T02:24:05;19.55;;;12.52;;
49842;SDS011;55559;48.898;9.184;2022-11-12T02:27:18;25.48;;;13.85;;
49842;SDS011;55559;48.898;9.184;2022-11-12T02:30:05;24.70;;;13.02;;
49842;SDS011;55559;48.898;9.184;2022-11-12T02:32:51;20.35;;;13.02;;
49842;SDS011;55559;48.898;9.184;2022-11-12T02:35:37;21.50;;;12.98;;
49842;SDS011;55559;48.898;9.184;2022-11-12T02:38:25;20.10;;;11.93;;
49842;SDS011;55559;48.898;9.184;2022-11-12T02:41:11;19.30;;;12.32;;
49842;SDS011;55559;48.898;9.184;2022-11-12T02:43:57;16.85;;;12.10;;
49842;SDS011;55559;48.898;9.184;2022-11-12T02:46:43;21.95;;;10.95;;
49842;SDS011;55559;48.898;9.184;2022-11-12T02:49:29;20.17;;;12.13;;
49842;SDS011;55559;48.898;9.184;2022-11-12T02:52:15;24.85;;;13.38;;
49842;SDS011;55559;48.898;9.184;2022-11-12T02:55:03;21.95;;;13.57;;
49842;SDS011;55559;48.898;9.184;2022-11-12T02:57:49;19.88;;;13.57;;
49842;SDS011;55559;48.898;9.184;2022-11-12T03:00:35;21.73;;;12.98;;
49842;SDS011;55559;48.898;9.184;2022-11-12T03:03:21;25.38;;;14.25;;
49842;SDS011;55559;48.898;9.184;2022-11-12T03:06:07;21.55;;;11.73;;
49842;SDS011;55559;48.898;9.184;2022-11-12T03:08:53;19.63;;;13.38;;
49842;SDS011;55559;48.898;9.184;2022-11-12T03:11:40;22.27;;;12.82;;
49842;SDS011;55559;48.898;9.184;2022-11-12T03:14:26;21.63;;;13.45;;
49842;SDS011;55559;48.898;9.184;2022-11-12T03:17:12;20.65;;;12.27;;
49842;SDS011;55559;48.898;9.184;2022-11-12T03:19:58;19.95;;;13.15;;
49842;SDS011;55559;48.898;9.184;2022-11-12T03:22:53;19.88;;;11.63;;
49842;SDS011;55559;48.898;9.184;2022-11-12T03:25:42;20.75;;;13.30;;
49842;SDS011;55559;48.898;9.184;2022-11-12T03:28:30;22.58;;;12.25;;
49842;SDS011;55559;48.898;9.184;2022-11-12T03:31:16;20.30;;;13.27;;
49842;SDS011;55559;48.898;9.184;2022-11-12T03:34:01;20.80;;;12.55;;
49842;SDS011;55559;48.898;9.184;2022-11-12T03:36:47;18.58;;;11.95;;
49842;SDS011;55559;48.898;9.184;2022-11-12T03:39:33;24.55;;;12.65;;
49842;SDS011;55559;48.898;9.184;2022-11-12T03:42:20;19.33;;;11.15;;
49842;SDS011;55559;48.898;9.184;2022-11-12T03:45:07;22.38;;;11.82;;
49842;SDS011;55559;48.898;9.184;2022-11-12T03:47:54;22.17;;;12.25;;
49842;SDS011;55559;48.898;9.184;2022-11-12T03:50:41;20.02;;;10.30;;
49842;SDS011;55559;48.898;9.184;2022-11-12T03:53:27;20.23;;;10.27;;
49842;SDS011;55559;48.898;9.184;2022-11-12T03:56:13;15.07;;;10.65;;
49842;SDS011;55559;48.898;9.184;2022-11-12T03:58:59;16.77;;;9.50;;
49842;SDS011;55559;48.898;9.184;2022-11-12T04:01:47;15.05;;;9.85;;
49842;SDS011;55559;48.898;9.184;2022-11-12T04:04:33;19.55;;;9.73;;
49842;SDS011;55559;48.898;9.184;2022-11-12T04:07:32;15.57;;;9.10;;
49842;SDS011;55559;48.898;9.184;2022-11-12T04:10:36;16.45;;;8.93;;
49842;SDS011;55559;48.898;9.184;2022-11-12T04:13:22;10.07;;;8.20;;
49842;SDS011;55559;48.898;9.184;2022-11-12T04:16:14;13.07;;;9.75;;
49842;SDS011;55559;48.898;9.184;2022-11-12T04:19:21;10.52;;;7.72;;
49842;SDS011;55559;48.898;9.184;2022-11-12T04:22:24;12.60;;;7.95;;
49842;SDS011;55559;48.898;9.184;2022-11-12T04:25:10;9.93;;;7.70;;
49842;SDS011;55559;48.898;9.184;2022-11-12T04:28:13;7.63;;;5.90;;
49842;SDS011;55559;48.898;9.184;2022-11-12T04:30:59;8.10;;;5.85;;
49842;SDS011;55559;48.898;9.184;2022-11-12T04:33:44;8.50;;;6.22;;
49842;SDS011;55559;48.898;9.184;2022-11-12T04:36:31;8.70;;;7.10;;
49842;SDS011;55559;48.898;9.184;2022-11-12T04:39:17;10.60;;;7.22;;
49842;SDS011;55559;48.898;9.184;2022-11-12T04:42:03;7.90;;;6.15;;
49842;SDS011;55559;48.898;9.184;2022-11-12T04:45:07;10.40;;;6.90;;
49842;SDS011;55559;48.898;9.184;2022-11-12T04:47:54;8.43;;;6.50;;
49842;SDS011;55559;48.898;9.184;2022-11-12T04:50:40;9.68;;;7.65;;
49842;SDS011;55559;48.898;9.184;2022-11-12T04:53:29;10.43;;;8.05;;
49842;SDS011;55559;48.898;9.184;2022-11-12T04:56:15;9.02;;;7.30;;
49842;SDS011;55559;48.898;9.184;2022-11-12T04:59:01;11.80;;;8.75;;
49842;SDS011;55559;48.898;9.184;2022-11-12T05:01:47;10.45;;;8.02;;
49842;SDS011;55559;48.898;9.184;2022-11-12T05:04:32;12.27;;;7.32;;
49842;SDS011;55559;48.898;9.184;2022-11-12T05:07:18;12.15;;;6.72;;
49842;SDS011;55559;48.898;9.184;2022-11-12T05:10:07;11.57;;;6.95;;
49842;SDS011;55559;48.898;9.184;2022-11-12T05:12:53;11.23;;;6.88;;
49842;SDS011;55559;48.898;9.184;2022-11-12T05:15:39;10.73;;;7.35;;
49842;SDS011;55559;48.898;9.184;2022-11-12T05:18:28;10.85;;;7.15;;
49842;SDS011;55559;48.898;9.184;2022-11-12T05:21:13;9.40;;;7.60;;
49842;SDS011;55559;48.898;9.184;2022-11-12T05:24:17;12.63;;;6.87;;
49842;SDS011;55559;48.898;9.184;2022-11-12T05:27:06;9.38;;;7.07;;
49842;SDS011;55559;48.898;9.184;2022-11-12T05:29:53;10.65;;;6.22;;
49842;SDS011;55559;48.898;9.184;2022-11-12T05:32:39;7.30;;;5.82;;
49842;SDS011;55559;48.898;9.184;2022-11-12T05:35:25;8.98;;;6.50;;
49842;SDS011;55559;48.898;9.184;2022-11-12T05:38:11;7.82;;;5.80;;
49842;SDS011;55559;48.898;9.184;2022-11-12T05:40:57;7.38;;;5.38;;
49842;SDS011;55559;48.898;9.184;2022-11-12T05:43:44;10.25;;;6.55;;
49842;SDS011;55559;48.898;9.184;2022-11-12T05:46:30;6.32;;;4.70;;
49842;SDS011;55559;48.898;9.184;2022-11-12T05:49:16;5.90;;;5.30;;
49842;SDS011;55559;48.898;9.184;2022-11-12T05:52:02;7.28;;;4.95;;
49842;SDS011;55559;48.898;9.184;2022-11-12T05:54:49;8.60;;;5.15;;
49842;SDS011;55559;48.898;9.184;2022-11-12T05:57:35;5.53;;;4.72;;
49842;SDS011;55559;48.898;9.184;2022-11-12T06:00:22;8.85;;;4.53;;
49842;SDS011;55559;48.898;9.184;2022-11-12T06:03:08;5.15;;;4.22;;
49842;SDS011;55559;48.898;9.184;2022-11-12T06:05:55;4.53;;;3.72;;
49842;SDS011;55559;48.898;9.184;2022-11-12T06:08:42;4.72;;;4.22;;
49842;SDS011;55559;48.898;9.184;2022-11-12T06:11:28;5.55;;;4.93;;
49842;SDS011;55559;48.898;9.184;2022-11-12T06:14:13;6.90;;;4.10;;
49842;SDS011;55559;48.898;9.184;2022-11-12T06:17:01;5.72;;;4.32;;
49842;SDS011;55559;48.898;9.184;2022-11-12T06:19:46;6.75;;;4.88;;
49842;SDS011;55559;48.898;9.184;2022-11-12T06:22:32;6.22;;;4.60;;
49842;SDS011;55559;48.898;9.184;2022-11-12T06:25:18;5.47;;;4.95;;
49842;SDS011;55559;48.898;9.184;2022-11-12T06:28:04;6.05;;;4.88;;
49842;SDS011;55559;48.898;9.184;2022-11-12T06:30:50;8.05;;;6.22;;
49842;SDS011;55559;48.898;9.184;2022-11-12T06:33:38;8.93;;;5.80;;
49842;SDS011;55559;48.898;9.184;2022-11-12T06:36:25;9.57;;;5.32;;
49842;SDS011;55559;48.898;9.184;2022-11-12T06:39:11;7.75;;;6.10;;
49842;SDS011;55559;48.898;9.184;2022-11-12T06:41:57;7.85;;;5.85;;
49842;SDS011;55559;48.898;9.184;2022-11-12T06:44:44;7.78;;;6.32;;
49842;SDS011;55559;48.898;9.184;2022-11-12T06:47:30;6.38;;;5.43;;
49842;SDS011;55559;48.898;9.184;2022-11-12T06:50:18;8.18;;;6.50;;
49842;SDS011;55559;48.898;9.184;2022-11-12T06:53:04;9.48;;;6.88;;
49842;SDS011;55559;48.898;9.184;2022-11-12T06:55:51;8.15;;;6.70;;
49842;SDS011;55559;48.898;9.184;2022-11-12T06:58:37;10.07;;;7.53;;
49842;SDS011;55559;48.898;9.184;2022-11-12T07:01:23;12.70;;;7.05;;
49842;SDS011;55559;48.898;9.184;2022-11-12T07:04:09;11.20;;;8.40;;
49842;SDS011;55559;48.898;9.184;2022-11-12T07:06:57;13.25;;;9.07;;
49842;SDS011;55559;48.898;9.184;2022-11-12T07:09:43;14.75;;;9.18;;
49842;SDS011;55559;48.898;9.184;2022-11-12T07:12:28;11.23;;;7.15;;
49842;SDS011;55559;48.898;9.184;2022-11-12T07:15:14;12.27;;;7.22;;
49842;SDS011;55559;48.898;9.184;2022-11-12T07:18:02;10.45;;;7.40;;
49842;SDS011;55559;48.898;9.184;2022-11-12T07:20:48;10.82;;;7.65;;
49842;SDS011;55559;48.898;9.184;2022-11-12T07:23:36;10.93;;;8.07;;
49842;SDS011;55559;48.898;9.184;2022-11-12T07:26:22;12.88;;;8.40;;
49842;SDS011;55559;48.898;9.184;2022-11-12T07:29:11;8.60;;;7.32;;
49842;SDS011;55559;48.898;9.184;2022-11-12T07:31:58;14.00;;;7.50;;
49842;SDS011;55559;48.898;9.184;2022-11-12T07:34:44;12.52;;;8.10;;
49842;SDS011;55559;48.898;9.184;2022-11-12T07:37:30;10.43;;;7.15;;
49842;SDS011;55559;48.898;9.184;2022-11-12T07:40:17;11.38;;;7.53;;
49842;SDS011;55559;48.898;9.184;2022-11-12T07:43:04;10.48;;;7.05;;
49842;SDS011;55559;48.898;9.184;2022-11-12T07:45:50;6.95;;;6.25;;
49842;SDS011;55559;48.898;9.184;2022-11-12T07:48:36;8.25;;;6.47;;
49842;SDS011;55559;48.898;9.184;2022-11-12T07:51:23;7.10;;;5.75;;
49842;SDS011;55559;48.898;9.184;2022-11-12T07:54:11;10.13;;;6.85;;
49842;SDS011;55559;48.898;9.184;2022-11-12T07:56:59;16.90;;;12.55;;
49842;SDS011;55559;48.898;9.184;2022-11-12T07:59:44;31.63;;;21.50;;
49842;SDS011;55559;48.898;9.184;2022-11-12T08:02:30;17.02;;;13.48;;
49842;SDS011;55559;48.898;9.184;2022-11-12T08:05:16;22.00;;;19.77;;
49842;SDS011;55559;48.898;9.184;2022-11-12T08:08:02;18.45;;;11.57;;
49842;SDS011;55559;48.898;9.184;2022-11-12T08:10:52;12.98;;;8.70;;
49842;SDS011;55559;48.898;9.184;2022-11-12T08:13:41;10.30;;;6.68;;
49842;SDS011;55559;48.898;9.184;2022-11-12T08:16:27;7.18;;;5.90;;
49842;SDS011;55559;48.898;9.184;2022-11-12T08:19:13;54.05;;;29.58;;
49842;SDS011;55559;48.898;9.184;2022-11-12T08:21:59;63.53;;;43.45;;
49842;SDS011;55559;48.898;9.184;2022-11-12T08:24:45;9.75;;;7.25;;
49842;SDS011;55559;48.898;9.184;2022-11-12T08:27:31;7.28;;;6.00;;
49842;SDS011;55559;48.898;9.184;2022-11-12T08:30:19;8.30;;;6.22;;
49842;SDS011;55559;48.898;9.184;2022-11-12T08:33:05;9.77;;;5.65;;
49842;SDS011;55559;48.898;9.184;2022-11-12T08:35:51;9.90;;;6.18;;
49842;SDS011;55559;48.898;9.184;2022-11-12T08:38:37;15.75;;;5.35;;
49842;SDS011;55559;48.898;9.184;2022-11-12T08:41:24;6.47;;;5.88;;
49842;SDS011;55559;48.898;9.184;2022-11-12T08:44:10;6.60;;;5.25;;
49842;SDS011;55559;48.898;9.184;2022-11-12T08:46:58;5.50;;;4.80;;
49842;SDS011;55559;48.898;9.184;2022-11-12T08:49:44;5.75;;;4.07;;
49842;SDS011;55559;48.898;9.184;2022-11-12T08:52:30;7.55;;;4.10;;
49842;SDS011;55559;48.898;9.184;2022-11-12T08:55:16;9.85;;;6.22;;
49842;SDS011;55559;48.898;9.184;2022-11-12T08:58:01;6.68;;;4.95;;
49842;SDS011;55559;48.898;9.184;2022-11-12T09:00:48;9.60;;;4.43;;
49842;SDS011;55559;48.898;9.184;2022-11-12T09:03:36;11.48;;;7.60;;
49842;SDS011;55559;48.898;9.184;2022-11-12T09:06:22;10.00;;;9.07;;
49842;SDS011;55559;48.898;9.184;2022-11-12T09:09:08;5.63;;;5.05;;
49842;SDS011;55559;48.898;9.184;2022-11-12T09:11:54;5.38;;;4.00;;
49842;SDS011;55559;48.898;9.184;2022-11-12T09:14:40;3.08;;;2.78;;
49842;SDS011;55559;48.898;9.184;2022-11-12T09:17:26;6.78;;;3.55;;
49842;SDS011;55559;48.898;9.184;2022-11-12T09:20:15;4.85;;;4.13;;
49842;SDS011;55559;48.898;9.184;2022-11-12T09:23:02;2.80;;;2.30;;
49842;SDS011;55559;48.898;9.184;2022-11-12T09:25:49;4.63;;;2.67;;
49842;SDS011;55559;48.898;9.184;2022-11-12T09:28:35;5.65;;;2.45;;
49842;SDS011;55559;48.898;9.184;2022-11-12T09:31:21;3.40;;;3.10;;
49842;SDS011;55559;48.898;9.184;2022-11-12T09:34:08;4.28;;;3.88;;
49842;SDS011;55559;48.898;9.184;2022-11-12T09:36:56;6.22;;;3.60;;
49842;SDS011;55559;48.898;9.184;2022-11-12T09:39:41;4.18;;;3.35;;
49842;SDS011;55559;48.898;9.184;2022-11-12T09:42:27;3.78;;;2.88;;
49842;SDS011;55559;48.898;9.184;2022-11-12T09:45:17;4.95;;;2.65;;
49842;SDS011;55559;48.898;9.184;2022-11-12T09:48:07;5.68;;;2.30;;
49842;SDS011;55559;48.898;9.184;2022-11-12T09:50:57;3.40;;;3.10;;
49842;SDS011;55559;48.898;9.184;2022-11-12T09:53:51;5.63;;;3.00;;
49842;SDS011;55559;48.898;9.184;2022-11-12T09:56:40;3.47;;;2.60;;
49842;SDS011;55559;48.898;9.184;2022-11-12T09:59:28;2.72;;;2.50;;
49842;SDS011;55559;48.898;9.184;2022-11-12T10:02:19;4.13;;;3.72;;
49842;SDS011;55559;48.898;9.184;2022-11-12T10:05:15;6.93;;;2.38;;
49842;SDS011;55559;48.898;9.184;2022-11-12T10:08:24;4.15;;;3.67;;
49842;SDS011;55559;48.898;9.184;2022-11-12T10:11:33;10.32;;;9.32;;
49842;SDS011;55559;48.898;9.184;2022-11-12T10:14:56;5.13;;;2.75;;
49842;SDS011;55559;48.898;9.184;2022-11-12T10:18:12;2.30;;;1.67;;
49842;SDS011;55559;48.898;9.184;2022-11-12T10:21:04;19.17;;;17.17;;
49842;SDS011;55559;48.898;9.184;2022-11-12T10:23:59;4.60;;;2.92;;
49842;SDS011;55559;48.898;9.184;2022-11-12T10:26:47;4.00;;;3.67;;
49842;SDS011;55559;48.898;9.184;2022-11-12T10:29:35;7.80;;;6.57;;
49842;SDS011;55559;48.898;9.184;2022-11-12T10:32:28;1.90;;;1.50;;
49842;SDS011;55559;48.898;9.184;2022-11-12T10:35:15;2.85;;;1.50;;
49842;SDS011;55559;48.898;9.184;2022-11-12T10:38:03;3.17;;;2.88;;
49842;SDS011;55559;48.898;9.184;2022-11-12T10:40:51;5.30;;;4.15;;
49842;SDS011;55559;48.898;9.184;2022-11-12T10:43:38;4.15;;;3.42;;
49842;SDS011;55559;48.898;9.184;2022-11-12T10:46:38;4.38;;;3.15;;
49842;SDS011;55559;48.898;9.184;2022-11-12T10:49:27;2.55;;;1.50;;
49842;SDS011;55559;48.898;9.184;2022-11-12T10:52:19;2.63;;;1.48;;
49842;SDS011;55559;48.898;9.184;2022-11-12T10:55:11;3.65;;;1.90;;
49842;SDS011;55559;48.898;9.184;2022-11-12T10:58:14;1.88;;;1.40;;
49842;SDS011;55559;48.898;9.184;2022-11-12T11:01:05;2.85;;;1.23;;
49842;SDS011;55559;48.898;9.184;2022-11-12T11:04:00;2.00;;;1.38;;
49842;SDS011;55559;48.898;9.184;2022-11-12T11:06:46;3.30;;;1.30;;
49842;SDS011;55559;48.898;9.184;2022-11-12T11:09:32;7.25;;;2.65;;
49842;SDS011;55559;48.898;9.184;2022-11-12T11:12:22;2.58;;;1.50;;
49842;SDS011;55559;48.898;9.184;2022-11-12T11:15:17;1.80;;;1.30;;
49842;SDS011;55559;48.898;9.184;2022-11-12T11:18:06;1.88;;;1.45;;
49842;SDS011;55559;48.898;9.184;2022-11-12T11:20:57;2.50;;;1.50;;
49842;SDS011;55559;48.898;9.184;2022-11-12T11:23:52;2.28;;;1.63;;
49842;SDS011;55559;48.898;9.184;2022-11-12T11:26:46;7.47;;;4.78;;
49842;SDS011;55559;48.898;9.184;2022-11-12T11:29:54;4.63;;;1.73;;
49842;SDS011;55559;48.898;9.184;2022-11-12T11:32:52;2.35;;;1.38;;
49842;SDS011;55559;48.898;9.184;2022-11-12T11:36:03;2.30;;;1.50;;
49842;SDS011;55559;48.898;9.184;2022-11-12T11:39:01;5.15;;;1.67;;
49842;SDS011;55559;48.898;9.184;2022-11-12T11:41:58;2.40;;;1.33;;
49842;SDS011;55559;48.898;9.184;2022-11-12T11:44:56;2.58;;;1.23;;
49842;SDS011;55559;48.898;9.184;2022-11-12T11:47:49;2.63;;;1.20;;
49842;SDS011;55559;48.898;9.184;2022-11-12T11:50:40;3.50;;;1.98;;
49842;SDS011;55559;48.898;9.184;2022-11-12T11:53:40;4.38;;;1.48;;
49842;SDS011;55559;48.898;9.184;2022-11-12T11:56:35;3.53;;;1.77;;
49842;SDS011;55559;48.898;9.184;2022-11-12T11:59:31;4.82;;;2.00;;
49842;SDS011;55559;48.898;9.184;2022-11-12T12:02:39;5.85;;;1.88;;
49842;SDS011;55559;48.898;9.184;2022-11-12T12:05:37;3.13;;;1.58;;
49842;SDS011;55559;48.898;9.184;2022-11-12T12:08:29;5.80;;;2.05;;
49842;SDS011;55559;48.898;9.184;2022-11-12T12:11:24;6.68;;;2.08;;
49842;SDS011;55559;48.898;9.184;2022-11-12T12:14:21;3.72;;;2.15;;
49842;SDS011;55559;48.898;9.184;2022-11-12T12:17:18;2.47;;;1.92;;
49842;SDS011;55559;48.898;9.184;2022-11-12T12:20:13;5.28;;;2.15;;
49842;SDS011;55559;48.898;9.184;2022-11-12T12:23:05;3.65;;;1.85;;
49842;SDS011;55559;48.898;9.184;2022-11-12T12:25:59;3.45;;;2.08;;
49842;SDS011;55559;48.898;9.184;2022-11-12T12:28:50;3.50;;;2.25;;
49842;SDS011;55559;48.898;9.184;2022-11-12T12:34:30;6.32;;;3.85;;
49842;SDS011;55559;48.898;9.184;2022-11-12T12:37:20;4.43;;;3.67;;
49842;SDS011;55559;48.898;9.184;2022-11-12T12:40:13;6.30;;;3.67;;
49842;SDS011;55559;48.898;9.184;2022-11-12T12:43:05;8.40;;;2.42;;
49842;SDS011;55559;48.898;9.184;2022-11-12T12:45:58;5.37;;;2.27;;
49842;SDS011;55559;48.898;9.184;2022-11-12T12:48:44;10.07;;;1.95;;
49842;SDS011;55559;48.898;9.184;2022-11-12T12:51:32;6.78;;;2.78;;
49842;SDS011;55559;48.898;9.184;2022-11-12T12:57:39;4.40;;;2.85;;
49842;SDS011;55559;48.898;9.184;2022-11-12T13:00:26;8.38;;;2.60;;
49842;SDS011;55559;48.898;9.184;2022-11-12T13:06:39;6.05;;;2.75;;
49842;SDS011;55559;48.898;9.184;2022-11-12T13:09:37;5.38;;;3.63;;
49842;SDS011;55559;48.898;9.184;2022-11-12T13:12:29;5.35;;;2.67;;
49842;SDS011;55559;48.898;9.184;2022-11-12T13:15:49;5.43;;;2.78;;
49842;SDS011;55559;48.898;9.184;2022-11-12T13:18:57;5.63;;;2.30;;
49842;SDS011;55559;48.898;9.184;2022-11-12T13:21:45;4.10;;;2.42;;
49842;SDS011;55559;48.898;9.184;2022-11-12T13:33:45;10.32;;;2.85;;
49842;SDS011;55559;48.898;9.184;2022-11-12T13:36:34;6.38;;;3.75;;
49842;SDS011;55559;48.898;9.184;2022-11-12T13:39:20;7.10;;;3.25;;
49842;SDS011;55559;48.898;9.184;2022-11-12T13:42:10;7.35;;;3.45;;
49842;SDS011;55559;48.898;9.184;2022-11-12T13:45:15;9.75;;;3.80;;
49842;SDS011;55559;48.898;9.184;2022-11-12T13:48:04;9.48;;;4.80;;
49842;SDS011;55559;48.898;9.184;2022-11-12T13:50:54;5.85;;;4.20;;
49842;SDS011;55559;48.898;9.184;2022-11-12T13:53:44;5.25;;;4.43;;
49842;SDS011;55559;48.898;9.184;2022-11-12T13:56:32;5.82;;;4.45;;
49842;SDS011;55559;48.898;9.184;2022-11-12T13:59:20;4.90;;;3.97;;
49842;SDS011;55559;48.898;9.184;2022-11-12T14:02:14;7.45;;;4.60;;
49842;SDS011;55559;48.898;9.184;2022-11-12T14:05:10;7.13;;;5.25;;
49842;SDS011;55559;48.898;9.184;2022-11-12T14:08:12;7.80;;;4.78;;
49842;SDS011;55559;48.898;9.184;2022-11-12T14:11:27;7.72;;;5.03;;
49842;SDS011;55559;48.898;9.184;2022-11-12T14:14:25;9.15;;;5.57;;
49842;SDS011;55559;48.898;9.184;2022-11-12T14:17:21;10.15;;;5.38;;
49842;SDS011;55559;48.898;9.184;2022-11-12T14:20:24;9.65;;;5.50;;
49842;SDS011;55559;48.898;9.184;2022-11-12T14:23:14;10.82;;;6.25;;
49842;SDS011;55559;48.898;9.184;2022-11-12T14:26:01;10.35;;;5.25;;
49842;SDS011;55559;48.898;9.184;2022-11-12T14:28:50;12.43;;;5.68;;
49842;SDS011;55559;48.898;9.184;2022-11-12T14:31:40;8.43;;;6.05;;
49842;SDS011;55559;48.898;9.184;2022-11-12T14:34:26;8.25;;;5.72;;
49842;SDS011;55559;48.898;9.184;2022-11-12T14:40:19;10.80;;;6.88;;
49842;SDS011;55559;48.898;9.184;2022-11-12T14:43:14;7.30;;;5.90;;
49842;SDS011;55559;48.898;9.184;2022-11-12T14:46:06;9.75;;;6.05;;
49842;SDS011;55559;48.898;9.184;2022-11-12T14:49:04;9.52;;;6.13;;
49842;SDS011;55559;48.898;9.184;2022-11-12T14:52:02;9.35;;;6.18;;
49842;SDS011;55559;48.898;9.184;2022-11-12T14:54:53;11.43;;;6.43;;
49842;SDS011;55559;48.898;9.184;2022-11-12T14:57:42;7.25;;;5.63;;
49842;SDS011;55559;48.898;9.184;2022-11-12T15:00:36;16.88;;;6.70;;
49842;SDS011;55559;48.898;9.184;2022-11-12T15:03:31;10.63;;;7.07;;
49842;SDS011;55559;48.898;9.184;2022-11-12T15:06:19;8.63;;;6.03;;
49842;SDS011;55559;48.898;9.184;2022-11-12T15:09:15;6.78;;;6.07;;
49842;SDS011;55559;48.898;9.184;2022-11-12T15:12:06;9.77;;;6.63;;
49842;SDS011;55559;48.898;9.184;2022-11-12T15:15:02;11.18;;;6.72;;
49842;SDS011;55559;48.898;9.184;2022-11-12T15:17:55;10.48;;;6.43;;
49842;SDS011;55559;48.898;9.184;2022-11-12T15:20:45;9.23;;;6.38;;
49842;SDS011;55559;48.898;9.184;2022-11-12T15:23:45;8.40;;;6.35;;
49842;SDS011;55559;48.898;9.184;2022-11-12T15:26:33;15.98;;;6.85;;
49842;SDS011;55559;48.898;9.184;2022-11-12T15:29:23;7.30;;;6.35;;
49842;SDS011;55559;48.898;9.184;2022-11-12T15:32:29;10.98;;;7.03;;
49842;SDS011;55559;48.898;9.184;2022-11-12T15:35:30;11.35;;;6.65;;
49842;SDS011;55559;48.898;9.184;2022-11-12T15:38:21;9.05;;;7.18;;
49842;SDS011;55559;48.898;9.184;2022-11-12T15:41:17;15.48;;;8.75;;
49842;SDS011;55559;48.898;9.184;2022-11-12T15:44:07;15.68;;;8.20;;
49842;SDS011;55559;48.898;9.184;2022-11-12T15:46:53;17.60;;;8.13;;
49842;SDS011;55559;48.898;9.184;2022-11-12T15:49:48;13.38;;;9.40;;
49842;SDS011;55559;48.898;9.184;2022-11-12T15:52:35;17.13;;;10.02;;
49842;SDS011;55559;48.898;9.184;2022-11-12T15:55:22;13.07;;;9.63;;
49842;SDS011;55559;48.898;9.184;2022-11-12T15:58:10;17.92;;;10.38;;
49842;SDS011;55559;48.898;9.184;2022-11-12T16:01:00;15.50;;;10.07;;
49842;SDS011;55559;48.898;9.184;2022-11-12T16:03:47;15.98;;;9.52;;
49842;SDS011;55559;48.898;9.184;2022-11-12T16:06:33;18.38;;;9.95;;
49842;SDS011;55559;48.898;9.184;2022-11-12T16:09:19;16.88;;;9.00;;
49842;SDS011;55559;48.898;9.184;2022-11-12T16:12:08;13.73;;;9.70;;
49842;SDS011;55559;48.898;9.184;2022-11-12T16:14:56;20.65;;;12.80;;
49842;SDS011;55559;48.898;9.184;2022-11-12T16:17:44;22.02;;;15.02;;
49842;SDS011;55559;48.898;9.184;2022-11-12T16:20:30;28.38;;;16.23;;
49842;SDS011;55559;48.898;9.184;2022-11-12T16:23:18;24.23;;;14.55;;
49842;SDS011;55559;48.898;9.184;2022-11-12T16:26:04;21.30;;;13.85;;
49842;SDS011;55559;48.898;9.184;2022-11-12T16:28:54;21.30;;;12.25;;
49842;SDS011;55559;48.898;9.184;2022-11-12T16:31:40;29.65;;;13.25;;
49842;SDS011;55559;48.898;9.184;2022-11-12T16:34:27;17.20;;;12.82;;
49842;SDS011;55559;48.898;9.184;2022-11-12T16:37:13;21.75;;;13.30;;
49842;SDS011;55559;48.898;9.184;2022-11-12T16:39:59;26.70;;;13.30;;
49842;SDS011;55559;48.898;9.184;2022-11-12T16:42:45;17.88;;;13.32;;
49842;SDS011;55559;48.898;9.184;2022-11-12T16:45:33;25.70;;;16.23;;
49842;SDS011;55559;48.898;9.184;2022-11-12T16:48:22;25.75;;;16.92;;
49842;SDS011;55559;48.898;9.184;2022-11-12T16:51:10;30.83;;;17.48;;
49842;SDS011;55559;48.898;9.184;2022-11-12T16:54:00;27.17;;;15.98;;
49842;SDS011;55559;48.898;9.184;2022-11-12T16:56:47;27.75;;;15.20;;
49842;SDS011;55559;48.898;9.184;2022-11-12T16:59:32;27.52;;;15.98;;
49842;SDS011;55559;48.898;9.184;2022-11-12T17:02:19;25.33;;;17.58;;
49842;SDS011;55559;48.898;9.184;2022-11-12T17:05:07;29.08;;;18.13;;
49842;SDS011;55559;48.898;9.184;2022-11-12T17:07:58;23.30;;;14.77;;
49842;SDS011;55559;48.898;9.184;2022-11-12T17:10:44;30.48;;;17.63;;